Time;durP1;ratioP1;P1;durP2;ratioP2;P2;SDS_P1;SDS_P2;PMS_P1;PMS_P2;Temp;Humidity;BMP_temperature;BMP_pressure;BME280_temperature;BME280_humidity;BME280_pressure;Samples;Min_cycle;Max_cycle;Signal;HPM_P1;HPM_P2
2023/01/20 00:02:12;;;;;;;2.57;2.07;;;;;;;8.73;100.00;93557.16;5052697;28;20238;-52
2023/01/20 00:04:38;;;;;;;4.47;2.10;;;;;;;8.82;100.00;93549.50;5052547;28;20220;-52
2023/01/20 00:07:03;;;;;;;1.70;1.50;;;;;;;8.68;100.00;93584.69;5052663;28;20192;-55
2023/01/20 00:09:29;;;;;;;2.23;1.57;;;;;;;8.81;100.00;93575.75;5052519;28;20678;-54
2023/01/20 00:11:54;;;;;;;2.23;1.57;;;;;;;9.08;100.00;93580.75;5067988;28;20170;-57
2023/01/20 00:14:20;;;;;;;7.47;2.13;;;;;;;9.13;100.00;93576.00;5067786;28;20213;-56
2023/01/20 00:16:45;;;;;;;1.80;1.40;;;;;;;9.07;100.00;93607.00;5052638;28;20691;-53
2023/01/20 00:19:13;;;;;;;1.60;1.20;;;;;;;8.89;100.00;93611.31;5051022;28;20251;-53
2023/01/20 00:21:39;;;;;;;1.27;1.13;;;;;;;8.93;100.00;93576.31;5052508;28;20261;-52
2023/01/20 00:24:05;;;;;;;3.27;0.90;;;;;;;8.81;100.00;93512.41;5052141;28;20244;-54
2023/01/20 00:26:30;;;;;;;1.90;0.80;;;;;;;8.66;100.00;93449.78;5052149;28;20244;-56
2023/01/20 00:28:56;;;;;;;3.40;1.13;;;;;;;8.31;100.00;93450.59;5051899;28;20208;-55
2023/01/20 00:31:23;;;;;;;1.23;1.13;;;;;;;8.18;100.00;93428.16;5052201;28;20613;-53
2023/01/20 00:33:50;;;;;;;1.17;1.07;;;;;;;8.13;100.00;93432.88;5051619;28;20208;-52
2023/01/20 00:36:18;;;;;;;4.10;1.00;;;;;;;8.12;100.00;93421.16;5052519;28;20196;-52
2023/01/20 00:38:43;;;;;;;0.70;0.50;;;;;;;8.10;100.00;93405.31;5052158;28;20255;-53
2023/01/20 00:41:10;;;;;;;0.73;0.23;;;;;;;8.12;100.00;93408.50;5052202;28;20193;-56
2023/01/20 00:43:36;;;;;;;0.40;0.30;;;;;;;8.08;100.00;93391.25;5051778;28;20227;-52
2023/01/20 00:46:24;;;;;;;0.30;0.30;;;;;;;8.19;100.00;93384.22;5040046;28;20240;-55
2023/01/20 00:48:56;;;;;;;0.40;0.40;;;;;;;8.16;100.00;93379.44;5051869;28;20209;-56
2023/01/20 00:51:21;;;;;;;0.70;0.30;;;;;;;8.26;100.00;93379.38;5051909;28;20178;-53
2023/01/20 00:53:47;;;;;;;0.50;0.50;;;;;;;8.24;100.00;93386.31;5051877;28;20544;-55
2023/01/20 00:56:12;;;;;;;0.67;0.40;;;;;;;8.23;100.00;93379.63;5052139;28;20216;-54
2023/01/20 00:58:37;;;;;;;0.33;0.30;;;;;;;8.26;100.00;93375.09;5051877;28;20213;-56
2023/01/20 01:01:03;;;;;;;0.40;0.30;;;;;;;8.27;100.00;93376.69;5051839;28;20174;-56
2023/01/20 01:03:29;;;;;;;0.40;0.40;;;;;;;8.29;100.00;93374.81;5051593;28;20216;-56
2023/01/20 01:06:08;;;;;;;0.27;0.23;;;;;;;8.19;100.00;93376.63;5051751;28;20205;-55
2023/01/20 01:08:34;;;;;;;0.40;0.40;;;;;;;8.23;100.00;93374.56;5051575;28;20561;-53
2023/01/20 01:10:59;;;;;;;1.70;0.50;;;;;;;8.24;100.00;93366.06;5066988;28;20189;-56
2023/01/20 01:13:25;;;;;;;0.83;0.37;;;;;;;8.17;100.00;93344.78;5051749;28;20209;-55
2023/01/20 01:15:50;;;;;;;0.77;0.77;;;;;;;8.17;100.00;93352.38;5052029;28;20177;-63
2023/01/20 01:18:16;;;;;;;1.67;1.00;;;;;;;8.14;100.00;93340.03;5051443;28;20233;-52
2023/01/20 01:20:43;;;;;;;1.87;0.83;;;;;;;8.02;100.00;93342.00;5051792;28;20177;-52
2023/01/20 01:23:09;;;;;;;1.10;0.80;;;;;;;7.95;100.00;93361.25;5051255;28;20201;-52
2023/01/20 01:25:36;;;;;;;1.70;1.30;;;;;;;7.92;100.00;93353.16;5051174;28;20205;-56
2023/01/20 01:28:01;;;;;;;1.70;1.17;;;;;;;7.94;100.00;93354.59;5051316;28;20300;-56
2023/01/20 01:30:27;;;;;;;1.73;1.10;;;;;;;7.82;100.00;93322.88;5051361;28;20685;-53
2023/01/20 01:32:52;;;;;;;1.33;1.03;;;;;;;7.91;100.00;93359.94;5051276;28;20214;-53
2023/01/20 01:35:18;;;;;;;1.30;1.10;;;;;;;7.95;100.00;93346.06;5051215;28;20185;-52
2023/01/20 01:37:43;;;;;;;3.67;2.17;;;;;;;8.03;100.00;93346.13;5051015;28;20213;-55
2023/01/20 01:40:09;;;;;;;3.70;2.17;;;;;;;8.00;100.00;93336.28;5051065;28;20185;-52
2023/01/20 01:42:35;;;;;;;5.03;2.73;;;;;;;8.00;100.00;93338.81;5050932;28;20224;-53
2023/01/20 01:45:18;;;;;;;5.80;2.07;;;;;;;7.98;100.00;93342.44;5051370;28;20198;-53
2023/01/20 01:47:53;;;;;;;0.50;0.40;;;;;;;8.01;100.00;93340.41;5050836;28;20698;-53
2023/01/20 01:50:29;;;;;;;0.60;0.40;;;;;;;7.99;100.00;93357.47;5051217;28;20196;-53
2023/01/20 01:52:56;;;;;;;0.60;0.30;;;;;;;7.88;100.00;93352.63;5049800;28;20217;-58
2023/01/20 01:55:27;;;;;;;0.40;0.40;;;;;;;7.93;100.00;93368.19;5049840;28;20239;-56
2023/01/20 01:57:53;;;;;;;0.60;0.43;;;;;;;8.09;100.00;93375.09;5050755;28;20331;-57
2023/01/20 02:00:19;;;;;;;0.40;0.40;;;;;;;8.11;100.00;93358.84;5051178;28;20563;-57
2023/01/20 02:02:45;;;;;;;1.10;0.47;;;;;;;8.18;100.00;93356.53;5050720;28;20217;-54
2023/01/20 02:05:13;;;;;;;1.30;0.50;;;;;;;8.17;100.00;93370.09;5050922;28;20209;-56
2023/01/20 02:07:41;;;;;;;0.47;0.47;;;;;;;8.20;100.00;93370.59;5050836;28;20284;-57
2023/01/20 02:10:07;;;;;;;0.40;0.40;;;;;;;8.15;100.00;93351.75;5050700;28;20539;-57
2023/01/20 02:12:32;;;;;;;0.50;0.40;;;;;;;8.15;100.00;93344.16;5050715;28;20286;-56
2023/01/20 02:15:01;;;;;;;0.47;0.47;;;;;;;8.10;100.00;93328.63;5050743;28;20193;-55
2023/01/20 02:17:32;;;;;;;1.50;0.50;;;;;;;8.10;100.00;93328.63;5050477;28;20213;-52
2023/01/20 02:20:07;;;;;;;0.40;0.40;;;;;;;8.03;100.00;93323.34;5050606;28;20196;-53
2023/01/20 02:22:32;;;;;;;1.40;0.83;;;;;;;8.11;100.00;93333.53;5050697;28;20209;-58
2023/01/20 02:25:09;;;;;;;3.93;0.80;;;;;;;8.12;100.00;93332.56;5050803;28;20223;-57
2023/01/20 02:27:58;;;;;;;0.50;0.50;;;;;;;8.00;100.00;93318.56;5050604;28;20617;-57
2023/01/20 02:30:45;;;;;;;1.07;0.67;;;;;;;7.85;100.00;93315.00;5050618;28;20697;-52
2023/01/20 02:33:23;;;;;;;1.00;0.60;;;;;;;7.79;100.00;93309.72;5050436;28;20223;-54
2023/01/20 02:35:54;;;;;;;1.80;0.40;;;;;;;7.79;100.00;93305.47;5050769;28;20185;-56
2023/01/20 02:39:04;;;;;;;0.70;0.63;;;;;;;7.88;100.00;93299.50;5050496;28;20229;-54
2023/01/20 02:41:50;;;;;;;0.60;0.40;;;;;;;7.99;100.00;93301.00;4989263;28;20199;-55
2023/01/20 02:44:20;;;;;;;0.60;0.40;;;;;;;7.97;100.00;93280.94;5042930;28;20233;-53
2023/01/20 02:47:01;;;;;;;1.30;0.40;;;;;;;8.00;100.00;93285.69;5050475;28;20311;-56
2023/01/20 02:49:36;;;;;;;0.70;0.50;;;;;;;8.06;100.00;93281.78;5048883;28;20577;-53
2023/01/20 02:52:06;;;;;;;1.77;0.43;;;;;;;8.01;100.00;93283.94;5050395;28;20185;-53
2023/01/20 02:54:35;;;;;;;0.40;0.40;;;;;;;8.00;100.00;93282.38;5050479;28;20201;-57
2023/01/20 02:57:04;;;;;;;0.33;0.33;;;;;;;7.97;100.00;93290.25;5050413;28;20208;-57
2023/01/20 02:59:35;;;;;;;0.67;0.50;;;;;;;7.97;100.00;93275.06;5050178;28;20403;-56
2023/01/20 03:02:13;;;;;;;0.30;0.30;;;;;;;8.10;100.00;93283.06;5050208;28;20178;-55
2023/01/20 03:04:44;;;;;;;0.57;0.57;;;;;;;8.02;100.00;93291.38;5049985;28;20597;-57
2023/01/20 03:07:13;;;;;;;0.40;0.40;;;;;;;8.12;100.00;93299.69;5051992;28;20205;-56
2023/01/20 03:09:44;;;;;;;0.20;0.20;;;;;;;8.14;100.00;93302.84;5053673;28;20264;-56
2023/01/20 03:12:21;;;;;;;0.47;0.40;;;;;;;8.16;100.00;93285.78;5053537;28;20189;-53
2023/01/20 03:14:48;;;;;;;0.40;0.40;;;;;;;8.20;100.00;93291.34;5053573;28;20271;-57
2023/01/20 03:17:14;;;;;;;0.23;0.23;;;;;;;8.24;100.00;93293.41;5053396;28;20570;-56
2023/01/20 03:19:40;;;;;;;0.33;0.30;;;;;;;8.12;100.00;93264.25;5053420;28;20280;-56
2023/01/20 03:22:06;;;;;;;0.20;0.20;;;;;;;8.21;100.00;93293.72;5068595;28;20193;-57
2023/01/20 03:24:34;;;;;;;1.07;0.97;;;;;;;8.26;100.00;93290.78;5053374;28;20189;-52
2023/01/20 03:27:00;;;;;;;2.40;0.60;;;;;;;8.18;100.00;93273.78;5053415;28;20213;-57
2023/01/20 03:29:26;;;;;;;0.87;0.30;;;;;;;8.33;100.00;93292.56;5053177;28;20586;-57
2023/01/20 03:31:56;;;;;;;0.30;0.30;;;;;;;8.33;100.00;93289.22;5051903;28;20202;-56
2023/01/20 03:34:23;;;;;;;1.43;0.40;;;;;;;8.39;100.00;93289.44;5053038;28;20687;-51
2023/01/20 03:36:50;;;;;;;1.23;0.67;;;;;;;8.33;100.00;93290.03;5053219;28;20201;-53
2023/01/20 03:39:16;;;;;;;1.50;0.80;;;;;;;8.35;100.00;93298.28;5053274;28;20216;-56
2023/01/20 03:42:17;;;;;;;1.10;0.50;;;;;;;8.30;100.00;93309.81;5053100;28;20197;-55
2023/01/20 03:44:51;;;;;;;0.97;0.73;;;;;;;8.35;100.00;93303.34;5053272;28;20197;-53
2023/01/20 03:47:36;;;;;;;2.43;0.70;;;;;;;8.32;100.00;93293.50;5052746;28;20193;-54
2023/01/20 03:50:13;;;;;;;0.40;0.33;;;;;;;8.38;100.00;93290.38;5052913;28;20189;-53
2023/01/20 03:52:51;;;;;;;0.37;0.37;;;;;;;8.28;100.00;93287.16;5052867;28;20212;-56
2023/01/20 03:55:22;;;;;;;3.07;0.67;;;;;;;8.25;100.00;93263.88;5053139;28;20231;-57
2023/01/20 03:58:25;;;;;;;1.37;0.50;;;;;;;8.30;100.00;93237.16;5052580;28;20610;-56
2023/01/20 04:00:51;;;;;;;2.13;0.60;;;;;;;8.37;100.00;93253.34;5050455;28;20637;-52
2023/01/20 04:03:22;;;;;;;2.30;0.60;;;;;;;8.45;100.00;93258.44;5052645;28;20209;-57
2023/01/20 04:05:49;;;;;;;1.10;0.53;;;;;;;8.57;100.00;93248.84;5052724;28;20217;-53
2023/01/20 04:08:19;;;;;;;1.93;1.67;;;;;;;8.75;100.00;93262.19;5052539;28;20302;-52
2023/01/20 04:10:47;;;;;;;2.07;0.70;;;;;;;8.65;100.00;93248.06;5052595;28;20190;-55
2023/01/20 04:13:14;;;;;;;2.00;0.87;;;;;;;8.68;100.00;93237.66;5052430;28;20224;-59
2023/01/20 04:15:44;;;;;;;3.17;0.90;;;;;;;8.67;100.00;93236.84;5067991;28;20204;-55
2023/01/20 04:18:14;;;;;;;3.80;1.73;;;;;;;8.63;100.00;93229.69;5051911;28;20303;-56
2023/01/20 04:20:42;;;;;;;1.53;0.80;;;;;;;8.68;100.00;93222.44;5052429;28;20186;-55
2023/01/20 04:23:16;;;;;;;2.97;1.00;;;;;;;8.73;100.00;93217.69;5052516;28;20221;-53
2023/01/20 04:25:42;;;;;;;2.37;0.90;;;;;;;8.68;100.00;93205.50;5052610;28;20239;-55
2023/01/20 04:28:07;;;;;;;1.97;1.17;;;;;;;8.68;100.00;93207.25;5052222;28;20245;-56
2023/01/20 04:30:33;;;;;;;2.47;1.60;;;;;;;8.66;100.00;93206.59;5052248;28;20189;-52
2023/01/20 04:32:59;;;;;;;4.30;2.37;;;;;;;8.72;100.00;93206.00;5052488;28;20687;-52
2023/01/20 04:35:24;;;;;;;7.10;2.23;;;;;;;8.75;100.00;93210.75;5050798;28;20204;-53
2023/01/20 04:37:50;;;;;;;4.43;2.10;;;;;;;8.63;100.00;93200.09;5052192;28;20587;-56
2023/01/20 04:40:15;;;;;;;3.07;2.20;;;;;;;8.77;100.00;93206.31;5052430;28;20185;-53
2023/01/20 04:42:41;;;;;;;4.93;2.17;;;;;;;8.77;100.00;93201.25;5051985;28;20267;-53
2023/01/20 04:45:08;;;;;;;2.60;2.13;;;;;;;8.85;100.00;93217.25;5051944;28;20205;-52
2023/01/20 04:47:33;;;;;;;3.20;2.13;;;;;;;8.75;100.00;93205.66;5050637;28;20217;-53
2023/01/20 04:49:59;;;;;;;2.57;1.97;;;;;;;8.89;100.00;93215.22;5052131;28;20211;-53
2023/01/20 04:52:25;;;;;;;2.23;1.97;;;;;;;8.98;100.00;93214.28;5051877;28;20252;-57
2023/01/20 04:54:50;;;;;;;79.83;47.83;;;;;;;8.85;100.00;93219.78;5051877;28;20193;-57
2023/01/20 04:57:15;;;;;;;64.50;38.53;;;;;;;8.71;100.00;93205.19;5051556;28;20189;-59
2023/01/20 04:59:41;;;;;;;16.27;10.17;;;;;;;8.65;100.00;93203.28;5051835;28;20529;-57
2023/01/20 05:02:07;;;;;;;44.87;27.50;;;;;;;8.72;100.00;93208.53;5051726;28;20233;-57
2023/01/20 05:04:32;;;;;;;55.33;32.83;;;;;;;8.77;100.00;93203.78;5050504;28;20571;-52
2023/01/20 05:06:57;;;;;;;106.23;66.47;;;;;;;8.81;100.00;93228.66;5051475;28;20308;-56
2023/01/20 05:09:23;;;;;;;6.40;4.47;;;;;;;8.67;100.00;93239.38;5051533;28;20296;-55
2023/01/20 05:11:48;;;;;;;2.47;1.60;;;;;;;8.49;100.00;93228.53;5051623;28;20193;-55
2023/01/20 05:14:13;;;;;;;3.97;1.67;;;;;;;8.36;100.00;93244.16;5050135;28;20209;-52
2023/01/20 05:16:39;;;;;;;3.20;1.93;;;;;;;8.10;100.00;93228.19;5051490;28;20201;-56
2023/01/20 05:19:05;;;;;;;2.60;1.67;;;;;;;8.03;100.00;93226.41;5049997;28;20734;-55
2023/01/20 05:21:30;;;;;;;3.13;2.03;;;;;;;8.04;100.00;93223.72;5049946;28;20277;-56
2023/01/20 05:23:56;;;;;;;2.43;1.80;;;;;;;8.05;100.00;93237.97;5051076;28;20630;-53
2023/01/20 05:26:23;;;;;;;3.40;2.03;;;;;;;7.98;100.00;93244.56;5051429;28;20305;-52
2023/01/20 05:28:48;;;;;;;3.03;1.90;;;;;;;7.96;100.00;93240.59;5050389;28;20201;-54
2023/01/20 05:31:15;;;;;;;4.17;2.00;;;;;;;8.13;100.00;93253.19;5050104;28;20629;-55
2023/01/20 05:33:40;;;;;;;4.83;1.93;;;;;;;8.12;100.00;93248.28;5051080;28;20209;-55
2023/01/20 05:36:13;;;;;;;2.57;1.53;;;;;;;8.23;100.00;93260.69;5051300;28;20193;-56
2023/01/20 05:38:39;;;;;;;3.67;2.20;;;;;;;8.06;100.00;93259.78;5051176;28;20249;-53
2023/01/20 05:41:07;;;;;;;3.13;1.97;;;;;;;7.92;100.00;93260.31;5051117;28;20204;-52
2023/01/20 05:43:33;;;;;;;3.23;1.77;;;;;;;7.64;100.00;93247.03;5065324;28;20714;-52
2023/01/20 05:45:58;;;;;;;3.37;2.27;;;;;;;7.87;100.00;93292.06;5049369;28;20205;-53
2023/01/20 05:48:24;;;;;;;2.17;1.90;;;;;;;8.06;100.00;93286.84;5050672;28;20651;-52
2023/01/20 05:50:50;;;;;;;4.60;2.67;;;;;;;8.17;100.00;93273.94;5049431;28;20751;-53
2023/01/20 05:53:16;;;;;;;2.47;1.80;;;;;;;8.38;100.00;93279.47;5048936;28;20213;-54
2023/01/20 05:55:42;;;;;;;4.30;2.23;;;;;;;8.60;100.00;93265.47;5048415;28;20727;-52
2023/01/20 05:58:07;;;;;;;4.83;2.53;;;;;;;8.73;100.00;93259.03;5051128;28;20288;-53
2023/01/20 06:00:33;;;;;;;6.13;2.30;;;;;;;8.65;100.00;93235.41;5051066;28;20181;-53
2023/01/20 06:02:58;;;;;;;4.50;2.13;;;;;;;8.89;100.00;93250.69;5050975;28;20344;-52
2023/01/20 06:05:24;;;;;;;3.83;2.80;;;;;;;8.87;100.00;93248.31;5050737;28;20243;-53
2023/01/20 06:07:50;;;;;;;6.17;2.10;;;;;;;8.80;100.00;93249.09;5050727;28;20213;-53
2023/01/20 06:10:16;;;;;;;3.73;2.27;;;;;;;9.03;100.00;93267.84;5065931;28;20200;-55
2023/01/20 06:12:42;;;;;;;3.57;2.40;;;;;;;9.01;100.00;93277.31;5050879;28;20229;-56
2023/01/20 06:15:09;;;;;;;4.70;2.40;;;;;;;8.84;100.00;93273.16;5051056;28;20670;-55
2023/01/20 06:17:34;;;;;;;3.13;2.50;;;;;;;8.88;100.00;93264.31;5050992;28;20598;-55
2023/01/20 06:20:00;;;;;;;2.70;2.47;;;;;;;8.79;100.00;93266.00;5049644;28;20181;-57
2023/01/20 06:22:27;;;;;;;7.23;2.93;;;;;;;9.04;100.00;93280.34;5049253;28;20735;-53
2023/01/20 06:24:52;;;;;;;4.13;3.40;;;;;;;9.15;100.00;93289.44;5050449;28;20193;-54
2023/01/20 06:27:18;;;;;;;5.27;3.27;;;;;;;9.04;100.00;93284.63;5050694;28;20331;-56
2023/01/20 06:29:44;;;;;;;5.60;3.17;;;;;;;9.01;100.00;93283.19;5050743;28;20231;-55
2023/01/20 06:32:09;;;;;;;5.50;3.50;;;;;;;8.87;100.00;93288.84;5050542;28;20178;-53
2023/01/20 06:34:35;;;;;;;6.13;3.87;;;;;;;8.88;100.00;93285.38;5049121;28;20192;-54
2023/01/20 06:37:01;;;;;;;4.90;3.07;;;;;;;9.14;100.00;93282.75;5050409;28;20182;-55
2023/01/20 06:39:27;;;;;;;5.27;3.60;;;;;;;9.26;100.00;93291.66;5050466;28;20197;-52
2023/01/20 06:41:56;;;;;;;8.03;4.30;;;;;;;9.45;100.00;93280.44;5052136;28;20594;-53
2023/01/20 06:44:22;;;;;;;6.40;4.43;;;;;;;9.50;100.00;93255.38;5053979;28;20236;-56
2023/01/20 06:46:47;;;;;;;8.13;5.03;;;;;;;9.16;100.00;93222.56;5053878;28;20244;-53
2023/01/20 06:49:13;;;;;;;8.20;3.87;;;;;;;8.90;100.00;93226.94;5052563;28;20194;-56
2023/01/20 06:51:40;;;;;;;7.10;3.90;;;;;;;8.64;100.00;93224.50;5052285;28;20200;-57
2023/01/20 06:54:06;;;;;;;6.97;4.43;;;;;;;8.40;100.00;93219.34;5052912;28;20751;-55
2023/01/20 06:56:31;;;;;;;8.30;3.60;;;;;;;8.17;100.00;93221.59;5053983;28;20201;-53
2023/01/20 06:58:57;;;;;;;7.77;3.60;;;;;;;8.29;100.00;93215.34;5053735;28;20287;-53
2023/01/20 07:01:30;;;;;;;3.83;2.90;;;;;;;8.30;100.00;93219.44;5053762;28;20600;-57
2023/01/20 07:03:55;;;;;;;6.30;2.57;;;;;;;8.41;100.00;93231.03;5053606;28;20721;-56
2023/01/20 07:06:23;;;;;;;3.57;2.07;;;;;;;8.25;100.00;93223.38;5053665;28;20595;-58
2023/01/20 07:08:49;;;;;;;3.80;1.93;;;;;;;8.33;100.00;93221.69;5053416;28;20225;-57
2023/01/20 07:11:15;;;;;;;3.83;2.40;;;;;;;8.32;100.00;93232.75;5053548;28;20240;-53
2023/01/20 07:13:40;;;;;;;4.17;2.17;;;;;;;8.12;100.00;93226.28;5053339;28;20216;-57
2023/01/20 07:16:06;;;;;;;7.10;2.70;;;;;;;8.40;100.00;93232.78;5053763;28;20657;-57
2023/01/20 07:18:32;;;;;;;5.63;2.20;;;;;;;8.62;100.00;93225.59;5053436;28;20225;-57
2023/01/20 07:20:57;;;;;;;3.67;2.20;;;;;;;8.75;100.00;93216.59;5053339;28;20296;-55
2023/01/20 07:23:23;;;;;;;3.17;2.47;;;;;;;8.76;100.00;93209.81;5051931;28;20213;-56
2023/01/20 07:26:04;;;;;;;4.17;2.67;;;;;;;8.76;100.00;93215.66;5053034;28;20725;-58
2023/01/20 07:28:31;;;;;;;4.37;3.10;;;;;;;8.59;100.00;93211.50;5051611;28;20706;-55
2023/01/20 07:31:11;;;;;;;7.20;3.63;;;;;;;8.74;100.00;93240.38;5050206;28;20197;-54
2023/01/20 07:33:36;;;;;;;3.57;2.83;;;;;;;8.77;100.00;93234.19;5052952;28;20227;-54
2023/01/20 07:36:02;;;;;;;4.23;3.07;;;;;;;8.84;100.00;93232.63;5053085;28;20575;-55
2023/01/20 07:38:28;;;;;;;5.50;3.23;;;;;;;8.91;100.00;93238.66;5053070;28;20224;-52
2023/01/20 07:40:59;;;;;;;5.13;2.57;;;;;;;8.83;100.00;93226.75;5053170;28;20197;-53
2023/01/20 07:43:25;;;;;;;8.17;3.80;;;;;;;8.95;100.00;93243.25;5051928;28;20296;-53
2023/01/20 07:45:56;;;;;;;6.27;3.90;;;;;;;8.91;100.00;93229.31;5051527;28;20209;-56
2023/01/20 07:48:22;;;;;;;7.17;4.20;;;;;;;9.10;100.00;93230.78;5052314;28;20213;-57
2023/01/20 07:50:48;;;;;;;6.10;4.13;;;;;;;9.14;100.00;93234.59;5052950;28;20239;-58
2023/01/20 07:53:13;;;;;;;5.73;4.03;;;;;;;9.23;100.00;93239.50;5051653;28;20267;-57
2023/01/20 07:55:38;;;;;;;5.60;3.23;;;;;;;9.35;100.00;93255.22;5052964;28;20711;-56
2023/01/20 07:58:04;;;;;;;8.30;4.00;;;;;;;9.29;100.00;93258.41;5052918;28;20237;-56
2023/01/20 08:00:29;;;;;;;8.33;4.60;;;;;;;9.22;100.00;93252.34;5049323;28;20250;-57
2023/01/20 08:02:55;;;;;;;5.83;3.47;;;;;;;9.11;100.00;93233.16;5051059;28;20303;-57
2023/01/20 08:05:21;;;;;;;8.57;4.00;;;;;;;9.15;100.00;93246.34;5051460;28;20582;-54
2023/01/20 08:07:50;;;;;;;6.70;3.70;;;;;;;8.89;100.00;93230.41;5051297;28;20699;-59
2023/01/20 08:10:16;;;;;;;5.73;3.57;;;;;;;9.08;100.00;93237.75;5051390;28;20541;-56
2023/01/20 08:12:41;;;;;;;5.83;3.63;;;;;;;9.00;100.00;93217.47;5052680;28;20213;-54
2023/01/20 08:15:08;;;;;;;7.60;3.80;;;;;;;8.94;100.00;93198.59;5052893;28;20264;-57
2023/01/20 08:17:33;;;;;;;10.03;3.77;;;;;;;8.79;100.00;93171.47;5067900;28;20217;-53
2023/01/20 08:19:58;;;;;;;11.80;6.77;;;;;;;8.61;100.00;93161.47;5052195;28;20189;-56
2023/01/20 08:22:24;;;;;;;9.10;4.43;;;;;;;8.57;100.00;93167.81;5050183;28;20194;-57
2023/01/20 08:24:50;;;;;;;6.07;3.80;;;;;;;8.54;100.00;93174.91;5050289;28;20189;-58
2023/01/20 08:27:15;;;;;;;4.80;3.40;;;;;;;8.42;100.00;93182.78;5050674;28;20614;-54
2023/01/20 08:29:41;;;;;;;9.10;4.27;;;;;;;8.50;100.00;93173.66;5052507;28;20652;-53
2023/01/20 08:32:06;;;;;;;13.80;4.30;;;;;;;8.52;100.00;93179.34;5050889;28;20205;-52
2023/01/20 08:34:32;;;;;;;7.90;4.13;;;;;;;8.58;100.00;93171.13;5050489;28;20197;-52
2023/01/20 08:36:58;;;;;;;6.80;4.00;;;;;;;8.78;100.00;93173.25;5050710;28;20197;-58
2023/01/20 08:39:23;;;;;;;5.80;3.83;;;;;;;8.78;100.00;93168.19;5049713;28;20287;-57
2023/01/20 08:41:49;;;;;;;10.17;3.87;;;;;;;8.80;100.00;93152.81;5049925;28;20193;-54
2023/01/20 08:44:16;;;;;;;5.20;3.13;;;;;;;8.80;100.00;93151.09;5050065;28;20275;-54
2023/01/20 08:46:43;;;;;;;6.93;4.50;;;;;;;8.89;100.00;93145.06;5049537;28;20224;-53
2023/01/20 08:49:15;;;;;;;8.60;5.17;;;;;;;8.76;100.00;93116.88;5066893;28;20217;-55
2023/01/20 08:51:41;;;;;;;10.87;5.40;;;;;;;8.87;100.00;93146.16;5050202;28;20189;-56
2023/01/20 08:54:07;;;;;;;10.13;5.40;;;;;;;9.00;100.00;93137.16;5049403;28;20682;-53
2023/01/20 08:56:34;;;;;;;6.23;3.43;;;;;;;9.03;100.00;93146.19;5048262;28;20217;-53
2023/01/20 08:59:01;;;;;;;6.03;2.60;;;;;;;9.19;100.00;93152.03;5050723;28;20258;-57
2023/01/20 09:01:29;;;;;;;1.63;1.40;;;;;;;9.17;100.00;93150.63;5050948;28;20196;-56
2023/01/20 09:03:56;;;;;;;1.40;1.30;;;;;;;9.13;100.00;93146.84;5050766;28;20197;-54
2023/01/20 09:06:22;;;;;;;2.40;1.23;;;;;;;9.23;100.00;93155.06;5051391;28;20213;-54
2023/01/20 09:08:49;;;;;;;2.17;1.37;;;;;;;9.49;100.00;93153.16;5051750;28;20209;-53
2023/01/20 09:11:19;;;;;;;3.20;1.50;;;;;;;9.43;100.00;93147.94;5051878;28;20286;-53
2023/01/20 09:13:45;;;;;;;1.80;1.17;;;;;;;9.40;100.00;93163.44;5051391;28;20206;-52
2023/01/20 09:16:13;;;;;;;3.57;1.27;;;;;;;9.24;100.00;93154.91;5051776;28;20185;-57
2023/01/20 09:18:39;;;;;;;1.53;1.20;;;;;;;9.31;100.00;93138.09;5051481;28;20284;-57
2023/01/20 09:21:08;;;;;;;1.77;1.53;;;;;;;9.39;100.00;93132.25;5033728;28;20707;-57
2023/01/20 09:23:35;;;;;;;2.60;1.10;;;;;;;9.40;100.00;93143.97;5051517;28;20217;-54
2023/01/20 09:26:02;;;;;;;2.77;1.30;;;;;;;9.40;100.00;93138.88;5051430;28;20683;-55
2023/01/20 09:28:28;;;;;;;4.07;1.47;;;;;;;9.57;100.00;93148.06;5050446;28;20710;-56
2023/01/20 09:30:58;;;;;;;1.43;1.13;;;;;;;9.82;100.00;93144.53;5050118;28;20204;-56
2023/01/20 09:33:24;;;;;;;2.90;0.90;;;;;;;9.70;100.00;93122.97;5051132;28;20213;-55
2023/01/20 09:35:56;;;;;;;1.10;0.97;;;;;;;9.89;100.00;93147.22;5051644;28;20212;-58
2023/01/20 09:44:33;;;;;;;2.37;1.40;;;;;;;10.37;100.00;93169.94;5042741;28;20324;-57
2023/01/20 09:47:20;;;;;;;5.40;2.03;;;;;;;10.42;100.00;93152.47;5050924;28;20217;-56
2023/01/20 09:53:29;;;;;;;2.37;1.33;;;;;;;10.32;100.00;93187.41;5051080;28;20718;-56
2023/01/20 09:56:12;;;;;;;2.93;1.13;;;;;;;10.20;100.00;93152.38;5025867;28;20201;-56
2023/01/20 09:59:00;;;;;;;2.13;1.20;;;;;;;10.50;100.00;93134.63;5050840;28;20224;-57
2023/01/20 10:01:43;;;;;;;1.30;1.07;;;;;;;11.67;100.00;93196.97;5051071;28;20251;-56
2023/01/20 10:04:37;;;;;;;1.53;0.83;;;;;;;12.65;100.00;93225.56;5050793;28;20210;-58
2023/01/20 10:07:14;;;;;;;1.13;0.80;;;;;;;13.07;100.00;93326.97;5050959;28;20220;-56
2023/01/20 10:09:51;;;;;;;1.13;0.80;;;;;;;13.26;100.00;93242.19;5051001;28;20186;-57
2023/01/20 10:12:29;;;;;;;0.77;0.60;;;;;;;13.19;100.00;93267.63;5050984;28;20197;-54
2023/01/20 10:15:03;;;;;;;2.10;0.83;;;;;;;13.62;100.00;93244.69;5050921;28;20189;-55
2023/01/20 10:17:35;;;;;;;0.93;0.80;;;;;;;13.75;100.00;93319.69;5054359;28;20212;-56
2023/01/20 10:20:14;;;;;;;0.90;0.53;;;;;;;14.17;100.00;93271.13;5054112;28;20714;-56
2023/01/20 10:22:45;;;;;;;1.17;0.70;;;;;;;13.62;100.00;93257.47;5053503;28;20216;-55
2023/01/20 10:25:17;;;;;;;0.60;0.60;;;;;;;13.98;100.00;93291.38;5052087;28;20282;-56
2023/01/20 10:27:50;;;;;;;1.77;0.50;;;;;;;14.09;100.00;93370.13;5053752;28;20726;-57
2023/01/20 10:30:20;;;;;;;1.80;0.50;;;;;;;14.01;100.00;93335.25;5053017;28;20225;-59
2023/01/20 10:33:08;;;;;;;3.58;0.90;;;;;;;14.08;100.00;93309.75;5054004;28;20224;-55
2023/01/20 10:35:50;;;;;;;0.73;0.70;;;;;;;13.71;100.00;93294.69;5045915;28;20247;-56
2023/01/20 10:38:38;;;;;;;1.40;0.90;;;;;;;13.46;100.00;93205.69;5053967;28;20706;-56
2023/01/20 10:41:14;;;;;;;2.33;1.17;;;;;;;13.47;100.00;93137.56;5054655;28;20188;-56
2023/01/20 10:43:40;;;;;;;2.73;1.30;;;;;;;13.06;100.00;93091.47;5054082;28;20239;-56
2023/01/20 10:46:48;;;;;;;3.33;1.35;;;;;;;12.98;100.00;93116.28;5054281;28;20201;-55
2023/01/20 10:49:24;;;;;;;1.07;1.00;;;;;;;12.72;100.00;93121.13;5053788;28;20240;-53
2023/01/20 10:51:55;;;;;;;2.23;1.10;;;;;;;12.56;100.00;93106.84;5053693;28;20637;-54
2023/01/20 10:54:52;;;;;;;1.73;1.43;;;;;;;12.34;100.00;93075.41;5053653;28;20213;-53
2023/01/20 10:57:17;;;;;;;1.10;1.10;;;;;;;12.15;100.00;93047.16;5069633;28;20671;-57
2023/01/20 10:59:53;;;;;;;2.30;1.30;;;;;;;12.05;100.00;93033.91;5053818;28;20277;-57
2023/01/20 11:02:24;;;;;;;4.07;1.50;;;;;;;12.06;100.00;93021.00;5052823;28;20737;-54
2023/01/20 11:04:56;;;;;;;2.37;1.57;;;;;;;12.14;100.00;93086.34;5052217;28;20197;-53
2023/01/20 11:07:21;;;;;;;3.20;1.60;;;;;;;11.85;100.00;93071.09;5053015;28;20302;-57
2023/01/20 11:09:48;;;;;;;2.23;1.23;;;;;;;11.98;100.00;93048.34;5053774;28;20644;-54
2023/01/20 11:12:16;;;;;;;2.20;1.10;;;;;;;11.87;100.00;93066.59;5053629;28;20198;-57
2023/01/20 11:14:42;;;;;;;2.13;1.40;;;;;;;11.82;100.00;93093.38;5053569;28;20185;-56
2023/01/20 11:17:14;;;;;;;2.37;1.40;;;;;;;11.64;100.00;93110.72;5053499;28;20186;-58
2023/01/20 11:19:57;;;;;;;3.43;1.43;;;;;;;11.54;100.00;93064.38;5053561;28;20189;-53
2023/01/20 11:22:28;;;;;;;5.40;1.30;;;;;;;11.40;100.00;93060.06;5053329;28;20282;-55
2023/01/20 11:24:57;;;;;;;2.57;1.50;;;;;;;11.43;100.00;93046.97;5053498;28;20682;-53
2023/01/20 11:27:26;;;;;;;2.80;1.53;;;;;;;11.37;100.00;93062.94;5051986;28;20292;-53
2023/01/20 11:30:01;;;;;;;1.20;1.00;;;;;;;11.05;100.00;93055.59;5053287;28;20194;-54
2023/01/20 11:32:38;;;;;;;2.83;1.00;;;;;;;10.77;100.00;93032.47;5053183;28;20221;-53
2023/01/20 11:35:20;;;;;;;2.30;1.40;;;;;;;10.79;100.00;93011.97;5053631;28;20205;-53
2023/01/20 11:37:45;;;;;;;2.17;1.40;;;;;;;10.82;100.00;93009.09;5053136;28;20706;-53
2023/01/20 11:40:26;;;;;;;3.17;1.73;;;;;;;10.67;100.00;92970.94;5053316;28;20182;-54
2023/01/20 11:42:53;;;;;;;2.33;1.70;;;;;;;10.63;100.00;93028.16;5053054;28;20231;-56
2023/01/20 11:45:31;;;;;;;1.97;1.80;;;;;;;10.35;100.00;93018.66;5053320;28;20222;-53
2023/01/20 11:48:01;;;;;;;2.67;2.10;;;;;;;10.20;100.00;93010.97;5052912;28;20281;-56
2023/01/20 11:50:39;;;;;;;3.30;1.93;;;;;;;10.19;100.00;93016.22;5053388;28;20662;-56
2023/01/20 11:53:17;;;;;;;1.93;1.67;;;;;;;10.02;100.00;93034.03;5052807;28;20205;-53